createdAt,value
2022-08-17T00:02:26.921Z,93822.38
2022-08-17T00:04:55.433Z,93827.03
2022-08-17T00:07:22.760Z,93820.81
2022-08-17T00:09:49.469Z,93823.53
2022-08-17T00:12:41.141Z,93818.50
2022-08-17T00:15:05.091Z,93812.28
2022-08-17T00:17:31.827Z,93810.78
2022-08-17T00:19:59.936Z,93814.63
2022-08-17T00:22:32.676Z,93803.78
2022-08-17T00:25:09.755Z,93804.56
2022-08-17T00:27:36.990Z,93810.38
2022-08-17T00:30:07.244Z,93806.09
2022-08-17T00:33:11.959Z,93797.56
2022-08-17T00:35:34.863Z,93784.38
2022-08-17T00:38:01.894Z,93792.91
2022-08-17T00:40:39.775Z,93789.78
2022-08-17T00:43:22.819Z,93792.88
2022-08-17T00:45:49.912Z,93789.41
2022-08-17T00:48:29.122Z,93791.72
2022-08-17T00:50:59.404Z,93790.13
2022-08-17T00:53:31.129Z,93797.88
2022-08-17T00:56:01.700Z,93787.81
2022-08-17T00:58:35.933Z,93790.50
2022-08-17T01:01:04.690Z,93791.69
2022-08-17T01:03:31.712Z,93790.94
2022-08-17T01:06:00.938Z,93789.00
2022-08-17T01:08:30.314Z,93787.44
2022-08-17T01:11:01.965Z,93788.19
2022-08-17T01:13:40.657Z,93792.84
2022-08-17T01:16:16.035Z,93796.72
2022-08-17T01:18:45.859Z,93792.81
2022-08-17T01:21:40.352Z,93792.81
2022-08-17T01:24:07.628Z,93795.13
2022-08-17T01:26:35.687Z,93788.16
2022-08-17T01:29:06.181Z,93783.13
2022-08-17T01:31:42.000Z,93778.88
2022-08-17T01:34:11.794Z,93786.63
2022-08-17T01:36:42.692Z,93784.69
2022-08-17T01:39:29.127Z,93785.84
2022-08-17T01:42:05.794Z,93793.56
2022-08-17T01:44:33.628Z,93790.47
2022-08-17T01:47:00.269Z,93782.72
2022-08-17T01:49:27.890Z,93780.00
2022-08-17T01:51:55.173Z,93785.78
2022-08-17T01:54:23.465Z,93776.88
2022-08-17T01:56:51.835Z,93781.53
2022-08-17T01:59:20.079Z,93783.84
2022-08-17T02:01:48.070Z,93784.63
2022-08-17T02:04:15.118Z,93781.88
2022-08-17T02:06:52.642Z,93787.72
2022-08-17T02:09:25.945Z,93775.72
2022-08-17T02:11:56.329Z,93773.38
2022-08-17T02:14:23.995Z,93775.69
2022-08-17T02:16:50.708Z,93771.81
2022-08-17T02:19:18.502Z,93771.44
2022-08-17T02:21:48.179Z,93768.72
2022-08-17T02:24:58.366Z,93773.38
2022-08-17T02:27:09.456Z,93773.38
2022-08-17T02:29:36.152Z,93778.00
2022-08-17T02:32:04.926Z,93763.28
2022-08-17T02:34:32.418Z,93770.25
2022-08-17T02:36:59.080Z,93759.81
2022-08-17T02:39:25.828Z,93762.91
2022-08-17T02:42:00.934Z,93762.13
2022-08-17T02:44:39.256Z,93755.91
2022-08-17T02:47:09.160Z,93758.59
2022-08-17T02:49:36.351Z,93750.09
2022-08-17T02:52:06.672Z,93752.75
2022-08-17T02:54:40.538Z,93746.16
2022-08-17T02:57:09.394Z,93762.03
2022-08-17T02:59:36.175Z,93757.00
2022-08-17T03:02:04.613Z,93768.63
2022-08-17T03:04:32.186Z,93767.47
2022-08-17T03:07:03.353Z,93768.66
2022-08-17T03:09:30.140Z,93767.84
2022-08-17T03:12:08.493Z,93772.50
2022-08-17T03:14:41.778Z,93774.00
2022-08-17T03:17:10.068Z,93771.69
2022-08-17T03:19:37.453Z,93771.34
2022-08-17T03:22:36.021Z,93768.25
2022-08-17T03:24:56.901Z,93771.38
2022-08-17T03:27:23.590Z,93774.88
2022-08-17T03:29:50.292Z,93777.63
2022-08-17T03:32:17.043Z,93786.91
2022-08-17T03:34:43.810Z,93788.44
2022-08-17T03:37:10.529Z,93787.28
2022-08-17T03:39:37.351Z,93789.59
2022-08-17T03:42:09.157Z,93791.56
2022-08-17T03:44:57.881Z,93788.09
2022-08-17T03:47:43.628Z,93783.81
2022-08-17T03:50:30.883Z,93781.09
2022-08-17T03:53:36.029Z,93780.31
2022-08-17T03:56:23.247Z,93773.38
2022-08-17T03:58:50.717Z,93778.41
2022-08-17T04:01:17.983Z,93778.41
2022-08-17T04:03:44.755Z,93784.59
2022-08-17T04:06:11.444Z,93783.44
2022-08-17T04:08:38.104Z,93787.28
2022-08-17T04:11:04.941Z,93788.06
2022-08-17T04:13:31.945Z,93786.91
2022-08-17T04:15:59.920Z,93787.72
2022-08-17T04:18:26.706Z,93795.84
2022-08-17T04:20:53.525Z,93793.53
2022-08-17T04:23:20.265Z,93790.47
2022-08-17T04:25:50.558Z,93793.56
2022-08-17T04:28:18.981Z,93790.84
2022-08-17T04:30:47.464Z,93789.28
2022-08-17T04:33:18.935Z,93789.69
2022-08-17T04:35:51.202Z,93796.66
2022-08-17T04:38:20.913Z,93792.00
2022-08-17T04:41:06.143Z,93790.44
2022-08-17T04:43:35.406Z,93790.84
2022-08-17T04:46:05.342Z,93788.13
2022-08-17T04:48:37.261Z,93799.00
2022-08-17T04:51:09.536Z,93795.47
2022-08-17T04:53:36.489Z,93812.47
2022-08-17T04:56:03.327Z,93803.53
2022-08-17T04:58:30.018Z,93801.63
2022-08-17T05:00:56.872Z,93806.28
2022-08-17T05:03:24.257Z,93812.06
2022-08-17T05:05:51.208Z,93812.84
2022-08-17T05:08:19.914Z,93819.84
2022-08-17T05:10:47.974Z,93812.53
2022-08-17T05:13:17.520Z,93805.97
2022-08-17T05:15:47.658Z,93806.78
2022-08-17T05:18:16.669Z,93809.53
2022-08-17T05:20:43.498Z,93806.84
2022-08-17T05:23:14.905Z,93815.00
2022-08-17T05:25:47.644Z,93812.28
2022-08-17T05:28:16.804Z,93810.38
2022-08-17T05:30:45.899Z,93808.06
2022-08-17T05:33:26.923Z,93808.41
2022-08-17T05:35:56.897Z,93816.91
2022-08-17T05:38:26.168Z,93810.72
2022-08-17T05:40:54.075Z,93818.06
2022-08-17T05:43:31.037Z,93817.25
2022-08-17T05:46:27.020Z,93825.38
2022-08-17T05:48:57.655Z,93817.13
2022-08-17T05:51:51.561Z,93829.06
2022-08-17T05:54:33.492Z,93821.91
2022-08-17T05:57:23.851Z,93822.56
2022-08-17T06:00:12.161Z,93831.75
2022-08-17T06:03:04.487Z,93842.06
2022-08-17T06:06:08.381Z,93835.34
2022-08-17T06:08:51.641Z,93832.06
2022-08-17T06:11:37.314Z,93830.78
2022-08-17T06:14:15.933Z,93835.59
2022-08-17T06:16:46.513Z,93834.91
2022-08-17T06:19:55.309Z,93829.63
2022-08-17T06:22:26.096Z,93826.19
2022-08-17T06:25:18.859Z,93825.97
2022-08-17T06:27:53.418Z,93838.47
2022-08-17T06:30:57.517Z,93854.13
2022-08-17T06:33:32.311Z,93865.56
2022-08-17T06:36:26.535Z,93866.19
2022-08-17T06:39:04.302Z,93869.94
2022-08-17T06:41:54.598Z,93868.31
2022-08-17T06:44:42.335Z,93862.69
2022-08-17T06:47:28.363Z,93872.63
2022-08-17T06:50:09.085Z,93881.81
2022-08-17T06:52:48.764Z,93877.75
2022-08-17T06:55:26.313Z,93880.22
2022-08-17T06:58:01.447Z,93882.28
2022-08-17T07:00:40.814Z,93876.66
2022-08-17T07:03:37.733Z,93875.78
2022-08-17T07:06:23.949Z,93882.91
2022-08-17T07:09:09.196Z,93880.50
2022-08-17T07:11:44.342Z,93878.94
2022-08-17T07:14:45.791Z,93866.53
2022-08-17T07:17:17.278Z,93865.72
2022-08-17T07:19:47.505Z,93857.88
2022-08-17T07:22:50.316Z,93855.06
2022-08-17T07:25:23.597Z,93851.06
2022-08-17T07:27:55.884Z,93854.28
2022-08-17T07:30:47.459Z,93847.97
2022-08-17T07:33:17.968Z,93847.16
2022-08-17T07:35:48.447Z,93850.19
2022-08-17T07:38:25.028Z,93848.50
2022-08-17T07:41:02.996Z,93853.00
2022-08-17T07:43:39.161Z,93851.81
2022-08-17T07:46:30.657Z,93861.13
2022-08-17T07:49:17.409Z,93861.97
2022-08-17T07:51:44.174Z,93863.28
2022-08-17T07:54:22.986Z,93867.91
2022-08-17T07:56:52.927Z,93871.25
2022-08-17T07:59:33.685Z,93867.34
2022-08-17T08:02:08.088Z,93859.69
2022-08-17T08:05:08.587Z,93863.16
2022-08-17T08:07:42.681Z,93867.81
2022-08-17T08:10:25.214Z,93867.63
2022-08-17T08:13:05.740Z,93864.63
2022-08-17T08:15:39.787Z,93861.72
2022-08-17T08:18:55.015Z,93863.22
2022-08-17T08:21:39.157Z,93851.91
2022-08-17T08:24:21.043Z,93855.22
2022-08-17T08:27:01.550Z,93858.63
2022-08-17T08:29:49.931Z,93877.94
2022-08-17T08:32:50.177Z,93871.69
2022-08-17T08:35:23.451Z,93868.59
2022-08-17T08:38:34.547Z,93859.84
2022-08-17T08:41:16.474Z,93870.13
2022-08-17T08:43:55.041Z,93860.00
2022-08-17T08:46:49.803Z,93865.84
2022-08-17T08:50:01.832Z,93867.31
2022-08-17T08:52:34.091Z,93862.06
2022-08-17T08:55:23.694Z,93855.97
2022-08-17T08:58:04.909Z,93858.75
2022-08-17T09:00:38.409Z,93863.44
2022-08-17T09:03:20.228Z,93865.22
2022-08-17T09:06:37.313Z,93858.84
2022-08-17T09:09:28.297Z,93847.00
2022-08-17T09:12:05.455Z,93844.88
2022-08-17T09:14:46.596Z,93848.41
2022-08-17T09:18:14.638Z,93842.41
2022-08-17T09:20:51.231Z,93837.34
2022-08-17T09:23:22.709Z,93844.72
2022-08-17T09:25:58.570Z,93843.38
2022-08-17T09:28:37.915Z,93838.81
2022-08-17T09:31:16.723Z,93840.47
2022-08-17T09:33:46.850Z,93847.50
2022-08-17T09:36:25.983Z,93860.09
2022-08-17T09:39:01.895Z,93867.44
2022-08-17T09:41:37.710Z,93865.16
2022-08-17T09:44:36.766Z,93875.97
2022-08-17T09:47:15.671Z,93884.47
2022-08-17T09:49:48.370Z,93876.78
2022-08-17T09:52:25.141Z,93880.44
2022-08-17T09:54:54.593Z,93883.25
2022-08-17T09:57:31.487Z,93882.50
2022-08-17T10:00:16.572Z,93890.97
2022-08-17T10:03:22.440Z,93896.00
2022-08-17T10:05:59.948Z,93903.22
2022-08-17T10:08:42.095Z,93894.59
2022-08-17T10:11:50.258Z,93899.63
2022-08-17T10:14:38.085Z,93902.09
2022-08-17T10:17:21.631Z,93905.91
2022-08-17T10:20:04.131Z,93903.56
2022-08-17T10:23:01.872Z,93898.59
2022-08-17T10:25:55.063Z,93904.25
2022-08-17T10:28:29.714Z,93907.19
2022-08-17T10:31:30.821Z,93910.75
2022-08-17T10:34:12.392Z,93911.13
2022-08-17T10:37:08.727Z,93903.94
2022-08-17T10:40:07.338Z,93903.16
2022-08-17T10:42:43.848Z,93903.06
2022-08-17T10:45:33.583Z,93905.97
2022-08-17T10:48:06.554Z,93906.00
2022-08-17T10:51:00.339Z,93912.44
2022-08-17T10:53:48.670Z,93912.38
2022-08-17T10:56:16.310Z,93922.28
2022-08-17T10:58:57.914Z,93925.09
2022-08-17T11:01:41.224Z,93922.19
2022-08-17T11:04:42.040Z,93924.94
2022-08-17T11:07:30.539Z,93922.97
2022-08-17T11:10:00.015Z,93933.41
2022-08-17T11:12:37.654Z,93926.50
2022-08-17T11:15:16.541Z,93924.66
2022-08-17T11:18:08.817Z,93928.94
2022-08-17T11:21:06.494Z,93940.00
2022-08-17T11:24:14.696Z,93938.75
2022-08-17T11:26:48.815Z,93937.53
2022-08-17T11:29:24.704Z,93934.28
2022-08-17T11:32:00.027Z,93931.25
2022-08-17T11:34:30.016Z,93934.00
2022-08-17T11:37:11.224Z,93937.03
2022-08-17T11:40:25.866Z,93939.63
2022-08-17T11:43:05.427Z,93934.31
2022-08-17T11:45:37.983Z,93937.34
2022-08-17T11:48:31.971Z,93946.09
2022-08-17T11:51:28.190Z,93954.97
2022-08-17T11:54:14.751Z,93956.56
2022-08-17T11:56:49.196Z,93955.03
2022-08-17T11:59:37.102Z,93953.94
2022-08-17T12:02:31.778Z,93960.09
2022-08-17T12:05:14.571Z,93951.19
2022-08-17T12:07:46.380Z,93960.69
2022-08-17T12:10:17.280Z,93956.59
2022-08-17T12:12:45.814Z,93967.38
2022-08-17T12:15:24.611Z,93969.22
2022-08-17T12:17:53.962Z,93967.38
2022-08-17T12:20:27.838Z,93972.28
2022-08-17T12:23:09.302Z,93973.94
2022-08-17T12:25:35.966Z,93986.81
2022-08-17T12:28:06.479Z,93973.41
2022-08-17T12:30:35.648Z,93977.75
2022-08-17T12:33:02.618Z,93972.75
2022-08-17T12:35:36.225Z,93974.28
2022-08-17T12:38:06.536Z,93969.66
2022-08-17T12:40:57.941Z,93969.16
2022-08-17T12:43:29.264Z,93981.84
2022-08-17T12:45:59.497Z,93975.63
2022-08-17T12:48:28.954Z,93969.00
2022-08-17T12:51:02.434Z,93962.94
2022-08-17T12:53:32.604Z,93955.69
2022-08-17T12:56:01.531Z,93941.06
2022-08-17T12:58:32.206Z,93937.19
2022-08-17T13:01:04.367Z,93928.28
2022-08-17T13:03:43.401Z,93919.47
2022-08-17T13:06:25.231Z,93925.13
2022-08-17T13:08:52.398Z,93934.84
2022-08-17T13:11:24.166Z,93932.34
2022-08-17T13:13:55.145Z,93930.06
2022-08-17T13:16:28.535Z,93930.97
2022-08-17T13:19:16.532Z,93938.47
2022-08-17T13:21:49.039Z,93931.06
2022-08-17T13:24:25.163Z,93910.63
2022-08-17T13:27:00.963Z,93904.69
2022-08-17T13:29:51.221Z,93888.97
2022-08-17T13:32:43.033Z,93889.38
2022-08-17T13:35:39.251Z,93896.31
2022-08-17T13:38:14.022Z,93895.28
2022-08-17T13:40:53.143Z,93903.81
2022-08-17T13:43:48.560Z,93903.34
2022-08-17T13:46:21.808Z,93900.13
2022-08-17T13:49:03.619Z,93897.72
2022-08-17T13:51:34.175Z,93907.38
2022-08-17T13:54:03.987Z,93900.56
2022-08-17T13:56:39.667Z,93899.72
2022-08-17T13:59:13.059Z,93910.34
2022-08-17T14:01:53.417Z,93901.00
2022-08-17T14:04:24.898Z,93896.25
2022-08-17T14:07:11.524Z,93892.41
2022-08-17T14:10:00.848Z,93887.34
2022-08-17T14:12:30.534Z,93879.19
2022-08-17T14:14:58.909Z,93875.19
2022-08-17T14:17:29.006Z,93878.72
2022-08-17T14:19:55.822Z,93872.91
2022-08-17T14:22:30.491Z,93876.75
2022-08-17T14:24:58.765Z,93874.75
2022-08-17T14:27:28.165Z,93864.94
2022-08-17T14:29:56.439Z,93857.88
2022-08-17T14:32:29.913Z,93854.00
2022-08-17T14:34:57.742Z,93856.56
2022-08-17T14:37:28.017Z,93861.16
2022-08-17T14:39:57.255Z,93857.78
2022-08-17T14:42:25.546Z,93859.00
2022-08-17T14:44:53.934Z,93856.72
2022-08-17T14:47:20.864Z,93850.41
2022-08-17T14:49:51.098Z,93854.56
2022-08-17T14:52:24.073Z,93865.78
2022-08-17T14:54:52.664Z,93858.09
2022-08-17T14:57:26.036Z,93851.34
2022-08-17T15:00:02.112Z,93863.47
2022-08-17T15:02:30.903Z,93866.13
2022-08-17T15:05:03.820Z,93872.59
2022-08-17T15:07:31.553Z,93870.59
2022-08-17T15:10:02.050Z,93862.91
2022-08-17T15:12:33.306Z,93865.53
2022-08-17T15:15:05.292Z,93857.53
2022-08-17T15:17:44.353Z,93855.38
2022-08-17T15:20:23.970Z,93854.88
2022-08-17T15:22:50.999Z,93858.41
2022-08-17T15:25:19.335Z,93854.56
2022-08-17T15:27:46.434Z,93862.97
2022-08-17T15:30:13.632Z,93855.47
2022-08-17T15:32:45.790Z,93850.09
2022-08-17T15:35:27.572Z,93861.75
2022-08-17T15:37:57.754Z,93864.50
2022-08-17T15:40:25.166Z,93860.25
2022-08-17T15:42:52.716Z,93856.53
2022-08-17T15:45:24.920Z,93856.19
2022-08-17T15:47:53.530Z,93851.91
2022-08-17T15:50:20.247Z,93848.50
2022-08-17T15:52:47.582Z,93847.13
2022-08-17T15:55:15.223Z,93842.38
2022-08-17T15:57:41.978Z,93840.09
2022-08-17T16:00:10.145Z,93843.63
2022-08-17T16:03:45.966Z,93842.38
2022-08-17T16:05:28.504Z,93830.59
2022-08-17T16:07:58.651Z,93833.50
2022-08-17T16:10:35.739Z,93835.19
2022-08-17T16:13:03.979Z,93832.56
2022-08-17T16:15:31.840Z,93831.50
2022-08-17T16:17:59.059Z,93827.50
2022-08-17T16:20:25.819Z,93823.97
2022-08-17T16:22:52.960Z,93819.09
2022-08-17T16:25:52.461Z,93823.69
2022-08-17T16:28:17.455Z,93818.00
2022-08-17T16:30:44.374Z,93812.00
2022-08-17T16:33:12.001Z,93806.84
2022-08-17T16:35:38.988Z,93804.22
2022-08-17T16:38:07.289Z,93810.44
2022-08-17T16:40:35.710Z,93807.81
2022-08-17T16:43:07.099Z,93806.63
2022-08-17T16:45:36.779Z,93798.78
2022-08-17T16:48:04.411Z,93789.81
2022-08-17T16:50:32.178Z,93793.44
2022-08-17T16:53:06.692Z,93783.75
2022-08-17T16:55:35.701Z,93795.28
2022-08-17T16:58:04.755Z,93790.00
2022-08-17T17:00:33.179Z,93789.81
2022-08-17T17:03:19.638Z,93794.81
2022-08-17T17:05:57.922Z,93792.94
2022-08-17T17:08:30.434Z,93786.13
2022-08-17T17:10:59.593Z,93794.06
2022-08-17T17:13:35.471Z,93789.94
2022-08-17T17:16:28.667Z,93785.31
2022-08-17T17:18:55.262Z,93783.00
2022-08-17T17:21:31.244Z,93784.66
2022-08-17T17:24:06.999Z,93780.28
2022-08-17T17:26:39.729Z,93776.56
2022-08-17T17:29:18.427Z,93772.19
2022-08-17T17:32:04.569Z,93770.41
2022-08-17T17:34:37.362Z,93777.69
2022-08-17T17:37:13.250Z,93770.78
2022-08-17T17:39:56.125Z,93769.03
2022-08-17T17:42:28.343Z,93761.75
2022-08-17T17:45:04.453Z,93764.31
2022-08-17T17:47:33.464Z,93761.47
2022-08-17T17:50:02.174Z,93766.41
2022-08-17T17:52:50.773Z,93766.22
2022-08-17T17:55:31.019Z,93762.91
2022-08-17T17:58:10.096Z,93753.31
2022-08-17T18:00:58.856Z,93754.41
2022-08-17T18:03:31.746Z,93762.09
2022-08-17T18:06:31.491Z,93758.16
2022-08-17T18:09:08.923Z,93760.41
2022-08-17T18:11:59.190Z,93762.19
2022-08-17T18:14:40.843Z,93762.38
2022-08-17T18:17:07.438Z,93772.41
2022-08-17T18:19:34.087Z,93777.47
2022-08-17T18:22:03.769Z,93778.84
2022-08-17T18:24:40.088Z,93775.13
2022-08-17T18:27:34.991Z,93783.53
2022-08-17T18:30:21.576Z,93777.22
2022-08-17T18:32:48.290Z,93778.84
2022-08-17T18:35:14.899Z,93785.19
2022-08-17T18:37:42.694Z,93782.22
2022-08-17T18:40:18.504Z,93788.97
2022-08-17T18:43:05.503Z,93785.25
2022-08-17T18:45:34.058Z,93787.69
2022-08-17T18:48:01.302Z,93787.78
2022-08-17T18:50:36.799Z,93791.38
2022-08-17T18:53:34.548Z,93790.09
2022-08-17T18:56:22.903Z,93782.72
2022-08-17T18:59:00.615Z,93789.06
2022-08-17T19:01:47.003Z,93779.72
2022-08-17T19:04:34.557Z,93782.66
2022-08-17T19:07:04.991Z,93788.31
2022-08-17T19:09:39.823Z,93787.53
2022-08-17T19:12:13.498Z,93786.06
2022-08-17T19:14:40.572Z,93784.25
2022-08-17T19:17:21.926Z,93788.38
2022-08-17T19:20:03.073Z,93786.22
2022-08-17T19:22:40.482Z,93772.38
2022-08-17T19:25:18.697Z,93764.78
2022-08-17T19:28:02.937Z,93771.44
2022-08-17T19:30:30.320Z,93773.59
2022-08-17T19:32:58.467Z,93765.94
2022-08-17T19:35:46.795Z,93762.09
2022-08-17T19:38:38.405Z,93762.22
2022-08-17T19:41:18.157Z,93765.50
2022-08-17T19:44:06.990Z,93765.56
2022-08-17T19:46:56.329Z,93771.09
2022-08-17T19:49:46.849Z,93772.72
2022-08-17T19:52:37.464Z,93777.06
2022-08-17T19:55:23.127Z,93777.13
2022-08-17T19:58:00.802Z,93789.72
2022-08-17T20:00:28.538Z,93791.81
2022-08-17T20:03:22.153Z,93796.53
2022-08-17T20:08:58.337Z,93796.00
2022-08-17T20:11:41.753Z,93805.75
2022-08-17T20:14:13.795Z,93803.09
2022-08-17T20:16:40.880Z,93808.97
2022-08-17T20:19:16.868Z,93803.81
2022-08-17T20:21:48.654Z,93809.28
2022-08-17T20:24:27.522Z,93812.00
2022-08-17T20:27:12.375Z,93811.56
2022-08-17T20:29:57.844Z,93797.09
2022-08-17T20:32:31.336Z,93796.78
2022-08-17T20:35:32.909Z,93805.41
2022-08-17T20:37:59.829Z,93808.56
2022-08-17T20:40:37.145Z,93813.19
2022-08-17T20:43:43.479Z,93816.78
2022-08-17T20:46:31.870Z,93821.47
2022-08-17T20:49:23.350Z,93812.56
2022-08-17T20:52:01.185Z,93818.38
2022-08-17T20:54:49.056Z,93818.03
2022-08-17T20:57:37.234Z,93825.81
2022-08-17T21:00:18.811Z,93824.25
2022-08-17T21:02:49.572Z,93824.25
2022-08-17T21:05:57.248Z,93822.31
2022-08-17T21:08:55.241Z,93827.78
2022-08-17T21:11:56.728Z,93841.38
2022-08-17T21:14:49.730Z,93850.00
2022-08-17T21:17:54.885Z,93895.75
2022-08-17T21:20:32.196Z,93926.50
2022-08-17T21:23:24.394Z,93922.22
2022-08-17T21:26:14.080Z,93946.53
2022-08-17T21:29:31.339Z,93960.09
2022-08-17T21:32:05.274Z,93975.72
2022-08-17T21:35:07.355Z,93988.63
2022-08-17T21:37:45.159Z,94008.06
2022-08-17T21:40:18.199Z,94008.53
2022-08-17T21:42:55.152Z,94015.56
2022-08-17T21:45:37.943Z,94010.88
2022-08-17T21:48:20.021Z,94021.66
2022-08-17T21:51:00.982Z,94018.66
2022-08-17T21:53:53.234Z,94022.66
2022-08-17T21:56:24.678Z,94020.72
2022-08-17T21:59:07.688Z,94017.63
2022-08-17T22:01:41.660Z,94026.69
2022-08-17T22:04:11.720Z,94026.75
2022-08-17T22:06:52.480Z,94044.25
2022-08-17T22:09:31.880Z,94052.81
2022-08-17T22:12:06.637Z,94054.38
2022-08-17T22:14:53.044Z,94061.41
2022-08-17T22:17:29.745Z,94073.13
2022-08-17T22:20:04.493Z,94071.19
2022-08-17T22:22:55.919Z,94078.56
2022-08-17T22:25:24.310Z,94077.03
2022-08-17T22:28:00.409Z,94081.69
2022-08-17T22:30:27.781Z,94082.44
2022-08-17T22:32:55.458Z,94087.09
2022-08-17T22:35:25.282Z,94092.94
2022-08-17T22:37:52.593Z,94099.56
2022-08-17T22:40:34.567Z,94101.88
2022-08-17T22:43:03.598Z,94097.59
2022-08-17T22:45:31.305Z,94103.41
2022-08-17T22:48:02.218Z,94118.16
2022-08-17T22:50:33.121Z,94109.22
2022-08-17T22:53:21.654Z,94117.75
2022-08-17T22:56:15.159Z,94119.69
2022-08-17T22:59:12.373Z,94122.81
2022-08-17T23:01:40.668Z,94118.16
2022-08-17T23:04:11.643Z,94118.97
2022-08-17T23:06:42.363Z,94104.97
2022-08-17T23:09:09.536Z,94103.44
2022-08-17T23:11:48.810Z,94103.03
2022-08-17T23:14:19.890Z,94107.72
2022-08-17T23:16:50.277Z,94099.16
2022-08-17T23:19:21.526Z,94097.59
2022-08-17T23:21:53.824Z,94091.78
2022-08-17T23:24:24.246Z,94075.47
2022-08-17T23:26:51.176Z,94071.97
2022-08-17T23:29:20.544Z,94065.34
2022-08-17T23:31:49.300Z,94063.03
2022-08-17T23:34:18.411Z,94065.34
2022-08-17T23:36:51.282Z,94051.78
2022-08-17T23:39:27.470Z,94043.63
2022-08-17T23:41:59.103Z,94029.63
2022-08-17T23:44:26.603Z,94043.59
2022-08-17T23:46:54.520Z,94039.72
2022-08-17T23:49:21.399Z,94043.59
2022-08-17T23:51:48.981Z,94037.38
2022-08-17T23:54:37.481Z,94043.59
2022-08-17T23:57:09.254Z,94050.22
2022-08-17T23:59:37.158Z,94059.13
